Time;durP1;ratioP1;P1;durP2;ratioP2;P2;SDS_P1;SDS_P2;PMS_P1;PMS_P2;Temp;Humidity;BMP_temperature;BMP_pressure;BME280_temperature;BME280_humidity;BME280_pressure;Samples;Min_cycle;Max_cycle;Signal;HPM_P1;HPM_P2
2022/09/06 00:01:42;;;;;;;2.22;1.60;;;;;;;10.32;64.91;100176.38;4791862;29;20066;-78
2022/09/06 00:04:08;;;;;;;4.57;1.70;;;;;;;10.44;65.20;100194.63;4789872;29;20046;-77
2022/09/06 00:06:34;;;;;;;2.47;1.55;;;;;;;10.44;64.89;100196.34;4785668;29;20047;-77
2022/09/06 00:09:00;;;;;;;2.00;1.60;;;;;;;10.49;64.77;100186.81;4771065;29;20047;-77
2022/09/06 00:11:26;;;;;;;2.60;1.60;;;;;;;10.44;65.27;100183.34;4769479;29;20100;-77
2022/09/06 00:13:53;;;;;;;1.75;1.30;;;;;;;10.39;64.91;100179.00;4740025;29;20134;-78
2022/09/06 00:16:24;;;;;;;1.70;1.33;;;;;;;10.43;64.97;100177.28;4784570;29;20059;-77
2022/09/06 00:18:54;;;;;;;2.00;1.20;;;;;;;10.42;64.60;100179.88;4783500;29;20130;-78
2022/09/06 00:21:27;;;;;;;2.85;1.25;;;;;;;10.43;65.28;100174.69;4785387;29;20054;-77
2022/09/06 00:23:53;;;;;;;1.58;1.00;;;;;;;10.42;64.89;100178.16;4785358;29;20059;-78
2022/09/06 00:26:20;;;;;;;2.42;1.20;;;;;;;10.44;64.94;100171.22;4787405;29;20398;-80
2022/09/06 00:28:46;;;;;;;1.75;1.20;;;;;;;10.39;64.22;100163.41;4788532;29;20137;-77
2022/09/06 00:31:14;;;;;;;1.70;1.30;;;;;;;10.49;64.84;100182.44;4772472;29;20126;-77
2022/09/06 00:33:40;;;;;;;2.55;1.00;;;;;;;10.45;64.93;100185.06;4780883;29;20055;-78
2022/09/06 00:36:07;;;;;;;1.98;1.02;;;;;;;10.35;64.65;100185.06;4788560;29;20142;-78
2022/09/06 00:38:34;;;;;;;1.50;1.10;;;;;;;10.29;64.92;100189.41;4757820;29;20055;-77
2022/09/06 00:41:00;;;;;;;1.30;1.05;;;;;;;10.16;64.87;100173.81;4790033;29;20043;-78
2022/09/06 00:43:26;;;;;;;2.13;1.05;;;;;;;10.11;64.92;100196.34;4796575;29;20047;-76
2022/09/06 00:45:53;;;;;;;1.00;0.90;;;;;;;9.85;64.57;100173.81;4763029;29;20050;-78
2022/09/06 00:48:21;;;;;;;1.73;1.10;;;;;;;9.79;64.96;100179.03;4763479;29;20040;-76
2022/09/06 00:50:50;;;;;;;1.27;1.00;;;;;;;9.83;64.54;100183.34;4797159;29;20043;-77
2022/09/06 00:53:18;;;;;;;1.58;1.05;;;;;;;9.84;65.31;100192.03;4797155;29;20049;-79
2022/09/06 00:55:44;;;;;;;0.95;0.82;;;;;;;9.81;64.92;100187.72;4796643;29;20053;-76
2022/09/06 00:58:11;;;;;;;1.27;1.00;;;;;;;9.71;65.08;100184.22;4796783;29;20088;-78
2022/09/06 01:00:37;;;;;;;0.95;0.90;;;;;;;9.72;65.34;100188.53;4793395;29;20524;-77
2022/09/06 01:03:05;;;;;;;1.45;1.00;;;;;;;9.60;64.53;100189.41;4778359;29;20047;-76
2022/09/06 01:05:52;;;;;;;1.42;0.90;;;;;;;9.50;65.40;100185.06;4761601;29;20089;-78
2022/09/06 01:08:33;;;;;;;1.45;1.00;;;;;;;9.46;65.57;100189.41;4795425;29;20066;-77
2022/09/06 01:11:08;;;;;;;1.48;1.13;;;;;;;9.32;65.94;100168.59;4791217;29;20062;-77
2022/09/06 01:14:03;;;;;;;1.88;0.80;;;;;;;9.42;65.68;100192.84;4772757;29;20440;-75
2022/09/06 01:16:29;;;;;;;1.85;0.90;;;;;;;9.46;65.48;100197.19;4787345;29;20155;-78
2022/09/06 01:19:19;;;;;;;2.15;1.10;;;;;;;9.38;65.37;100165.13;4771895;29;20477;-78
2022/09/06 01:22:13;;;;;;;3.70;1.30;;;;;;;9.52;65.61;100191.13;4789706;29;20107;-78
2022/09/06 01:25:00;;;;;;;2.10;1.52;;;;;;;9.49;65.58;100176.38;4770751;29;20190;-78
2022/09/06 01:27:55;;;;;;;3.13;2.20;;;;;;;9.53;65.65;100182.47;4757594;29;20073;-78
2022/09/06 01:30:21;;;;;;;4.20;2.00;;;;;;;9.62;65.55;100187.66;4788152;29;20043;-77
2022/09/06 01:33:10;;;;;;;2.40;1.75;;;;;;;9.59;65.58;100192.00;4775981;29;20085;-79
2022/09/06 01:35:47;;;;;;;5.70;1.77;;;;;;;9.56;65.51;100177.28;4756293;29;20055;-76
2022/09/06 01:38:14;;;;;;;2.95;1.50;;;;;;;9.63;65.22;100194.59;4789739;29;20073;-78
2022/09/06 01:40:40;;;;;;;2.35;1.48;;;;;;;9.65;65.33;100198.06;4771406;29;20059;-77
2022/09/06 01:43:10;;;;;;;4.07;1.30;;;;;;;9.62;65.13;100182.47;4787727;29;20178;-76
2022/09/06 01:45:36;;;;;;;1.52;1.00;;;;;;;9.70;65.26;100190.31;4774656;29;20057;-77
2022/09/06 01:48:34;;;;;;;2.83;1.15;;;;;;;9.70;65.60;100192.91;4784876;29;20171;-76
2022/09/06 01:51:37;;;;;;;2.75;1.10;;;;;;;9.72;65.45;100185.09;4803397;29;20055;-78
2022/09/06 01:54:25;;;;;;;2.00;1.00;;;;;;;9.73;65.02;100194.63;4781051;29;20051;-77
2022/09/06 01:57:03;;;;;;;3.15;0.82;;;;;;;9.72;65.41;100192.91;4788886;29;20100;-76
2022/09/06 02:00:03;;;;;;;1.70;0.98;;;;;;;9.74;65.43;100189.41;4773081;29;20060;-77
2022/09/06 02:02:41;;;;;;;3.03;1.10;;;;;;;9.71;65.03;100186.81;4787987;29;20066;-78
2022/09/06 02:05:23;;;;;;;2.05;0.90;;;;;;;9.70;65.12;100187.72;4771264;29;20062;-77
2022/09/06 02:07:51;;;;;;;2.20;0.80;;;;;;;9.67;65.00;100181.63;4758448;29;20069;-78
2022/09/06 02:10:24;;;;;;;1.88;0.90;;;;;;;9.75;65.27;100192.91;4788894;29;20047;-78
2022/09/06 02:12:53;;;;;;;1.73;0.80;;;;;;;9.71;64.70;100185.97;4786910;29;20738;-78
2022/09/06 02:15:27;;;;;;;2.78;0.90;;;;;;;9.80;64.72;100196.38;4787256;29;20051;-78
2022/09/06 02:17:59;;;;;;;2.65;0.90;;;;;;;9.71;64.81;100176.41;4756050;29;20520;-77
2022/09/06 02:20:30;;;;;;;1.85;1.02;;;;;;;9.78;64.77;100201.56;4786561;29;20134;-77
2022/09/06 02:23:02;;;;;;;2.47;0.85;;;;;;;9.78;65.04;100201.56;4771020;29;20432;-76
2022/09/06 02:25:42;;;;;;;2.58;1.00;;;;;;;9.79;64.43;100205.88;4791758;29;20461;-77
2022/09/06 02:28:09;;;;;;;3.15;1.17;;;;;;;9.79;64.46;100205.88;4773596;30;20043;-77
2022/09/06 02:30:41;;;;;;;1.55;1.00;;;;;;;9.77;64.41;100193.78;4777461;29;20051;-77
2022/09/06 02:33:13;;;;;;;3.50;1.00;;;;;;;9.76;64.58;100189.44;4806247;29;20054;-78
2022/09/06 02:35:46;;;;;;;1.42;0.98;;;;;;;9.81;64.35;100198.09;4795463;29;20058;-76
2022/09/06 02:38:12;;;;;;;1.17;1.02;;;;;;;9.76;64.26;100198.09;4759164;30;20453;-76
2022/09/06 02:40:39;;;;;;;3.92;1.00;;;;;;;9.74;64.42;100192.00;4795836;29;20086;-77
2022/09/06 02:43:05;;;;;;;4.07;1.10;;;;;;;9.61;64.22;100185.94;4790865;29;20055;-80
2022/09/06 02:45:31;;;;;;;1.35;0.90;;;;;;;9.67;64.70;100205.88;4798362;29;20047;-75
2022/09/06 02:47:57;;;;;;;3.50;1.30;;;;;;;9.60;64.60;100192.00;4772472;30;20039;-77
2022/09/06 02:50:25;;;;;;;1.13;0.93;;;;;;;9.56;64.58;100197.19;4775063;29;20449;-77
2022/09/06 02:53:05;;;;;;;2.92;1.00;;;;;;;9.64;64.78;100205.88;4804909;29;20091;-78
2022/09/06 02:55:32;;;;;;;2.50;0.95;;;;;;;9.62;64.55;100211.06;4783858;29;20054;-78
2022/09/06 02:57:58;;;;;;;1.20;1.10;;;;;;;9.67;64.21;100210.19;4755109;29;20039;-78
2022/09/06 03:00:25;;;;;;;3.95;1.17;;;;;;;9.58;64.32;100196.34;4785750;29;20362;-78
2022/09/06 03:02:51;;;;;;;1.42;1.20;;;;;;;9.64;64.70;100217.13;4788072;29;20082;-78
2022/09/06 03:05:22;;;;;;;1.30;1.10;;;;;;;9.56;64.42;100197.19;4765896;29;20078;-78
2022/09/06 03:07:48;;;;;;;2.05;1.10;;;;;;;9.67;64.48;100218.00;4773847;30;20039;-77
2022/09/06 03:10:15;;;;;;;1.75;1.00;;;;;;;9.65;64.33;100208.47;4774812;29;20055;-77
2022/09/06 03:12:43;;;;;;;5.10;1.27;;;;;;;9.60;63.96;100198.94;4790381;29;20046;-78
2022/09/06 03:15:09;;;;;;;2.95;1.10;;;;;;;9.60;64.23;100205.00;4785913;29;20137;-77
2022/09/06 03:17:36;;;;;;;2.08;1.23;;;;;;;9.57;64.14;100209.31;4788210;29;20547;-77
2022/09/06 03:20:03;;;;;;;2.30;1.25;;;;;;;9.45;64.14;100202.38;4771649;29;20126;-79
2022/09/06 03:22:30;;;;;;;1.85;1.40;;;;;;;9.45;64.07;100202.38;4789856;29;20047;-78
2022/09/06 03:24:56;;;;;;;3.83;1.60;;;;;;;9.48;63.88;100205.88;4800168;29;20077;-76
2022/09/06 03:27:23;;;;;;;2.47;1.67;;;;;;;9.62;64.31;100213.66;4772708;29;20122;-77
2022/09/06 03:29:49;;;;;;;2.65;1.60;;;;;;;9.65;63.85;100218.00;4771123;29;20047;-77
2022/09/06 03:32:15;;;;;;;2.10;1.52;;;;;;;9.58;63.85;100211.94;4790733;29;20042;-77
2022/09/06 03:34:41;;;;;;;2.28;1.50;;;;;;;9.61;63.83;100222.31;4802612;29;20120;-75
2022/09/06 03:37:07;;;;;;;2.30;1.50;;;;;;;9.51;63.70;100210.19;4790108;29;20416;-76
2022/09/06 03:39:34;;;;;;;2.65;1.80;;;;;;;9.53;63.76;100217.97;4772228;29;20047;-78
2022/09/06 03:42:00;;;;;;;3.20;1.60;;;;;;;9.56;63.75;100218.88;4757902;29;20047;-79
2022/09/06 03:44:27;;;;;;;3.38;2.05;;;;;;;9.53;63.87;100202.38;4755168;29;20058;-78
2022/09/06 03:46:52;;;;;;;3.97;1.90;;;;;;;9.67;63.62;100199.81;4755229;29;20054;-78
2022/09/06 03:49:18;;;;;;;2.58;1.90;;;;;;;9.78;63.60;100205.91;4787868;29;20055;-78
2022/09/06 03:51:44;;;;;;;3.25;1.90;;;;;;;9.92;63.53;100222.34;4786851;29;20047;-76
2022/09/06 03:54:10;;;;;;;2.72;1.80;;;;;;;9.99;63.38;100217.19;4780176;29;20051;-78
2022/09/06 03:56:36;;;;;;;4.18;2.20;;;;;;;10.08;63.29;100223.25;4791088;29;20043;-78
2022/09/06 03:59:03;;;;;;;2.33;1.75;;;;;;;10.22;63.12;100225.84;4777954;29;20054;-77
2022/09/06 04:01:29;;;;;;;7.00;2.15;;;;;;;10.32;63.26;100223.22;4786195;29;20144;-79
2022/09/06 04:03:55;;;;;;;4.32;2.13;;;;;;;10.31;62.72;100208.47;4758256;29;20051;-78
2022/09/06 04:06:21;;;;;;;3.80;2.15;;;;;;;10.32;62.77;100215.41;4797467;29;20047;-78
2022/09/06 04:08:47;;;;;;;2.70;1.83;;;;;;;10.35;62.84;100224.09;4766877;29;20051;-79
2022/09/06 04:11:13;;;;;;;5.18;2.28;;;;;;;10.37;62.81;100224.94;4774623;29;20078;-78
2022/09/06 04:13:40;;;;;;;5.78;2.30;;;;;;;10.30;62.36;100198.94;4773316;29;20500;-79
2022/09/06 04:16:06;;;;;;;2.30;2.03;;;;;;;10.45;62.51;100222.38;4789005;29;20051;-77
2022/09/06 04:18:32;;;;;;;3.55;2.13;;;;;;;10.44;62.28;100215.44;4757822;29;20416;-80
2022/09/06 04:20:58;;;;;;;2.35;1.98;;;;;;;10.57;62.30;100218.00;4789644;29;20050;-78
2022/09/06 04:23:26;;;;;;;1.85;1.75;;;;;;;10.62;61.81;100224.91;4789159;29;20050;-76
2022/09/06 04:25:54;;;;;;;2.15;1.67;;;;;;;10.68;61.64;100226.66;4787281;29;20051;-79
2022/09/06 04:28:21;;;;;;;3.65;1.83;;;;;;;10.72;61.29;100222.31;4772106;29;20049;-77
2022/09/06 04:30:55;;;;;;;3.55;1.80;;;;;;;10.77;61.24;100218.81;4772699;29;20054;-78
2022/09/06 04:33:25;;;;;;;4.15;1.90;;;;;;;10.81;60.84;100225.75;4773917;29;20047;-76
2022/09/06 04:35:58;;;;;;;2.78;1.70;;;;;;;10.91;60.63;100221.38;4772447;29;20507;-78
2022/09/06 04:38:25;;;;;;;2.03;1.45;;;;;;;10.93;61.07;100219.63;4772901;29;20062;-78
2022/09/06 04:40:52;;;;;;;2.28;1.42;;;;;;;11.04;60.53;100216.09;4787631;29;20153;-77
2022/09/06 04:43:18;;;;;;;2.10;1.67;;;;;;;11.07;60.36;100216.97;4777353;29;20047;-78
2022/09/06 04:45:44;;;;;;;3.33;1.83;;;;;;;11.08;59.97;100216.13;4788715;29;20043;-77
2022/09/06 04:48:10;;;;;;;1.95;1.63;;;;;;;11.14;59.88;100210.84;4802539;29;20054;-77
2022/09/06 04:50:36;;;;;;;2.95;1.50;;;;;;;11.19;59.62;100209.97;4789707;29;20047;-78
2022/09/06 04:53:06;;;;;;;2.13;1.50;;;;;;;11.25;59.38;100223.84;4788879;29;20059;-78
2022/09/06 04:55:33;;;;;;;1.70;1.58;;;;;;;11.29;59.34;100222.09;4785383;29;20431;-77
2022/09/06 04:58:00;;;;;;;2.25;1.50;;;;;;;11.32;59.48;100221.19;4791718;29;20142;-77
2022/09/06 05:00:27;;;;;;;1.52;1.30;;;;;;;11.45;59.17;100223.72;4782999;29;20039;-77
2022/09/06 05:02:54;;;;;;;1.85;1.30;;;;;;;11.50;59.27;100215.03;4771948;29;20047;-77
2022/09/06 05:05:21;;;;;;;2.13;1.20;;;;;;;11.56;58.82;100209.78;4758035;29;20208;-78
2022/09/06 05:07:51;;;;;;;1.23;1.10;;;;;;;11.60;58.47;100220.19;4773521;29;20501;-78
2022/09/06 05:10:16;;;;;;;2.40;1.17;;;;;;;11.68;57.84;100224.47;4772364;29;20042;-77
2022/09/06 05:12:43;;;;;;;1.52;1.10;;;;;;;11.77;58.32;100220.94;4788236;29;20053;-78
2022/09/06 05:15:09;;;;;;;1.45;0.90;;;;;;;11.84;57.71;100215.66;4770052;29;20039;-77
2022/09/06 05:17:35;;;;;;;1.73;1.00;;;;;;;11.97;57.78;100211.22;4771401;29;20145;-77
2022/09/06 05:20:01;;;;;;;1.77;0.93;;;;;;;12.19;57.26;100217.16;4757062;29;20047;-79
2022/09/06 05:22:29;;;;;;;1.58;1.00;;;;;;;12.39;56.99;100215.25;4787713;29;20047;-80
2022/09/06 05:24:55;;;;;;;1.85;1.05;;;;;;;12.40;56.40;100185.66;4771421;29;20058;-78
2022/09/06 05:27:21;;;;;;;1.33;1.08;;;;;;;12.66;56.02;100211.47;4774593;29;20134;-78
2022/09/06 05:29:47;;;;;;;1.83;1.13;;;;;;;12.52;55.79;100171.59;4788470;29;20047;-77
2022/09/06 05:32:13;;;;;;;1.90;1.00;;;;;;;12.59;55.38;100188.91;4787247;29;20047;-77
2022/09/06 05:34:39;;;;;;;1.80;1.00;;;;;;;12.74;55.19;100214.00;4771807;29;20047;-76
2022/09/06 05:37:05;;;;;;;1.58;1.00;;;;;;;12.74;54.66;100214.88;4778557;29;20043;-76
2022/09/06 05:39:32;;;;;;;1.98;0.93;;;;;;;12.74;54.63;100200.94;4742361;29;20513;-76
2022/09/06 05:41:57;;;;;;;1.10;1.00;;;;;;;12.91;54.67;100217.25;4787984;29;20064;-77
2022/09/06 05:44:24;;;;;;;2.75;1.08;;;;;;;12.91;54.30;100179.84;4784974;29;20051;-77
2022/09/06 05:46:50;;;;;;;6.10;1.10;;;;;;;13.29;54.24;100208.97;4771191;29;20057;-78
2022/09/06 05:49:16;;;;;;;1.90;0.93;;;;;;;13.44;53.75;100197.50;4754434;29;20046;-77
2022/09/06 05:51:42;;;;;;;2.63;1.20;;;;;;;13.45;53.73;100189.59;4787594;29;20062;-77
2022/09/06 05:54:11;;;;;;;6.13;0.90;;;;;;;13.40;53.23;100196.63;4786739;29;20060;-77
2022/09/06 05:56:37;;;;;;;1.33;0.82;;;;;;;13.48;52.97;100212.22;4786523;29;20138;-78
2022/09/06 05:59:03;;;;;;;2.15;0.80;;;;;;;13.32;52.05;100195.88;4783358;29;20466;-80
2022/09/06 06:01:29;;;;;;;1.80;0.93;;;;;;;13.25;52.55;100190.72;4776291;29;20067;-78
2022/09/06 06:04:00;;;;;;;2.03;0.90;;;;;;;13.35;52.47;100188.00;4787392;29;20512;-79
2022/09/06 06:06:29;;;;;;;2.88;0.98;;;;;;;13.49;52.24;100196.53;4785096;29;20059;-79
2022/09/06 06:08:55;;;;;;;1.17;1.08;;;;;;;13.47;51.86;100200.91;4785642;29;20043;-79
2022/09/06 06:11:22;;;;;;;1.85;1.00;;;;;;;13.22;51.61;100185.53;4786402;29;20058;-80
2022/09/06 06:13:48;;;;;;;2.65;1.05;;;;;;;13.25;51.87;100209.03;4791870;29;20061;-79
2022/09/06 06:16:19;;;;;;;1.45;0.93;;;;;;;13.00;51.90;100195.41;4793316;29;20038;-79
2022/09/06 06:18:45;;;;;;;3.63;1.02;;;;;;;13.01;52.02;100201.50;4788921;30;20047;-80
2022/09/06 06:21:16;;;;;;;2.13;1.20;;;;;;;12.96;51.77;100199.81;4789824;29;20043;-79
2022/09/06 06:23:46;;;;;;;1.33;1.00;;;;;;;13.13;51.88;100217.00;4790015;29;20085;-79
2022/09/06 06:26:12;;;;;;;1.10;1.00;;;;;;;13.22;51.32;100201.22;4810480;29;20145;-77
2022/09/06 06:28:39;;;;;;;3.45;1.10;;;;;;;13.42;51.24;100213.19;4788618;29;20039;-79
2022/09/06 06:31:07;;;;;;;1.65;0.93;;;;;;;13.47;50.59;100215.72;4802070;29;20074;-78
2022/09/06 06:33:35;;;;;;;4.30;1.30;;;;;;;13.36;50.30;100197.53;4805129;29;20054;-78
2022/09/06 06:36:20;;;;;;;3.13;1.13;;;;;;;13.42;50.64;100212.31;4804627;29;20047;-79
2022/09/06 06:38:47;;;;;;;2.35;1.15;;;;;;;13.60;51.09;100198.97;4769035;30;20070;-77
2022/09/06 06:41:16;;;;;;;3.17;1.20;;;;;;;14.21;50.60;100201.47;4787759;29;20051;-81
2022/09/06 06:43:43;;;;;;;4.35;1.10;;;;;;;14.59;49.34;100193.81;4771773;29;20900;-78
2022/09/06 06:46:14;;;;;;;2.50;1.15;;;;;;;14.74;48.80;100198.78;4783746;29;20424;-77
2022/09/06 06:48:42;;;;;;;2.47;1.48;;;;;;;14.86;48.51;100202.91;4766128;29;20043;-78
2022/09/06 06:51:15;;;;;;;2.97;1.63;;;;;;;14.64;47.15;100191.97;4786564;29;20129;-77
2022/09/06 06:53:43;;;;;;;2.05;1.40;;;;;;;14.32;48.34;100188.19;4785484;29;20039;-79
2022/09/06 06:56:18;;;;;;;2.58;1.80;;;;;;;14.37;48.31;100199.47;4788628;29;20105;-82
2022/09/06 06:58:47;;;;;;;3.00;2.00;;;;;;;14.11;48.20;100165.91;4786973;29;20061;-78
2022/09/06 07:01:14;;;;;;;5.25;2.40;;;;;;;14.21;47.51;100209.34;4784499;29;20521;-79
2022/09/06 07:03:41;;;;;;;2.83;1.90;;;;;;;14.07;48.31;100196.47;4791860;29;20063;-79
2022/09/06 07:06:13;;;;;;;6.65;2.60;;;;;;;13.84;48.46;100186.41;4789925;29;20519;-84
2022/09/06 07:08:39;;;;;;;3.28;2.40;;;;;;;13.85;48.98;100196.84;4787868;29;20035;-79
2022/09/06 07:11:07;;;;;;;3.88;2.35;;;;;;;13.90;49.71;100207.25;4785372;29;20058;-78
2022/09/06 07:13:33;;;;;;;5.90;2.35;;;;;;;13.63;49.75;100192.84;4790903;29;20047;-79
2022/09/06 07:16:07;;;;;;;4.10;2.58;;;;;;;13.65;50.26;100211.97;4779641;29;20054;-80
2022/09/06 07:18:34;;;;;;;4.63;2.40;;;;;;;13.56;50.36;100212.97;4785998;29;20043;-81
2022/09/06 07:21:00;;;;;;;5.05;3.13;;;;;;;13.51;50.44;100212.19;4783558;29;20051;-79
2022/09/06 07:23:26;;;;;;;4.30;2.85;;;;;;;13.60;51.14;100214.66;4782455;29;20119;-82
2022/09/06 07:25:51;;;;;;;5.55;2.80;;;;;;;14.85;52.19;100200.34;4785541;29;20813;-79
2022/09/06 07:28:18;;;;;;;6.80;2.70;;;;;;;16.92;50.05;100194.47;4786533;29;20046;-82
2022/09/06 07:30:45;;;;;;;4.68;2.40;;;;;;;18.39;47.69;100188.97;4785228;29;20046;-78
2022/09/06 07:33:11;;;;;;;3.92;2.30;;;;;;;20.14;45.36;100174.38;4790666;29;20047;-80
2022/09/06 07:35:37;;;;;;;5.68;2.30;;;;;;;21.53;41.82;100166.34;4785492;29;20534;-79
2022/09/06 07:38:03;;;;;;;2.55;1.90;;;;;;;21.31;40.41;100159.44;4785846;29;20055;-76
2022/09/06 07:40:30;;;;;;;2.38;1.90;;;;;;;20.31;39.69;100156.94;4757616;29;20046;-78
2022/09/06 07:42:59;;;;;;;2.80;2.00;;;;;;;19.59;39.75;100179.28;4794925;29;20054;-78
2022/09/06 07:45:25;;;;;;;4.40;2.10;;;;;;;19.34;41.10;100178.50;4798658;29;20046;-77
2022/09/06 07:47:59;;;;;;;3.25;1.90;;;;;;;20.05;40.43;100177.41;4802401;29;20062;-78
2022/09/06 07:50:27;;;;;;;2.80;2.13;;;;;;;19.77;39.24;100175.88;4809046;29;20129;-77
2022/09/06 07:52:53;;;;;;;3.20;1.90;;;;;;;18.92;39.47;100168.66;4797885;29;20066;-78
2022/09/06 07:55:19;;;;;;;2.25;2.03;;;;;;;18.46;40.23;100176.44;4788647;29;20054;-78
2022/09/06 07:57:45;;;;;;;4.68;2.50;;;;;;;18.30;40.62;100171.72;4786782;29;20042;-78
2022/09/06 08:03:09;;;;;;;2.58;2.17;;;;;;;19.15;39.61;100159.03;4771723;30;20133;-78
2022/09/06 08:05:35;;;;;;;3.13;2.10;;;;;;;19.00;38.91;100158.69;4756292;30;20523;-77
2022/09/06 08:08:01;;;;;;;3.47;2.10;;;;;;;18.69;38.83;100156.31;4772373;30;20043;-78
2022/09/06 08:10:27;;;;;;;3.38;2.25;;;;;;;18.28;38.91;100165.66;4772561;29;20146;-78
2022/09/06 08:12:53;;;;;;;3.13;2.10;;;;;;;17.86;39.12;100164.44;4771979;30;20467;-78
2022/09/06 08:15:23;;;;;;;6.85;2.67;;;;;;;17.44;39.10;100159.63;4772907;29;20111;-79
2022/09/06 08:17:51;;;;;;;;;;;;;;;17.21;39.55;100168.25;4772461;29;20066;-77
2022/09/06 08:20:17;;;;;;;2.50;2.30;;;;;;;16.92;39.99;100164.66;4775210;30;19930;-78
2022/09/06 08:22:43;;;;;;;3.58;2.45;;;;;;;16.56;40.20;100149.91;4772450;29;20052;-78
2022/09/06 08:25:09;;;;;;;3.47;2.53;;;;;;;16.21;40.54;100155.25;4772602;29;20538;-79
2022/09/06 08:27:36;;;;;;;4.90;2.60;;;;;;;15.74;41.57;100160.78;4756060;30;20044;-77
2022/09/06 08:30:05;;;;;;;4.28;2.42;;;;;;;15.59;42.03;100179.50;4787011;30;20096;-78
2022/09/06 08:32:37;;;;;;;4.35;2.60;;;;;;;15.21;42.64;100148.91;4776713;29;20047;-78
2022/09/06 08:35:04;;;;;;;2.90;2.47;;;;;;;15.27;42.93;100176.72;4756658;30;20051;-79
2022/09/06 08:37:30;;;;;;;3.40;2.35;;;;;;;15.19;43.76;100162.94;4772676;29;20043;-79
2022/09/06 08:39:58;;;;;;;3.22;2.50;;;;;;;15.29;43.69;100168.81;4741105;30;20531;-79
2022/09/06 08:42:24;;;;;;;6.50;2.70;;;;;;;15.44;43.85;100173.75;4744273;30;20047;-78
2022/09/06 08:44:52;;;;;;;7.03;2.58;;;;;;;15.26;44.16;100167.16;4771847;29;20055;-78
2022/09/06 08:47:19;;;;;;;4.63;3.33;;;;;;;15.27;44.06;100171.50;4771472;29;20468;-77
2022/09/06 08:50:02;;;;;;;6.10;3.40;;;;;;;15.13;44.44;100169.16;4770174;30;20304;-77
2022/09/06 08:52:57;;;;;;;3.83;3.25;;;;;;;14.90;45.34;100182.75;4763194;29;20047;-80
2022/09/06 08:55:37;;;;;;;4.32;2.72;;;;;;;14.59;46.11;100183.34;4780745;29;20039;-78
2022/09/06 08:58:26;;;;;;;5.45;3.25;;;;;;;14.46;47.17;100180.94;4784543;29;20055;-81
2022/09/06 09:00:59;;;;;;;4.93;2.72;;;;;;;14.47;48.39;100181.81;4789386;29;20124;-78
2022/09/06 09:03:37;;;;;;;3.28;2.80;;;;;;;14.29;48.26;100172.56;4748604;30;20381;-77
2022/09/06 09:06:05;;;;;;;4.45;2.25;;;;;;;14.48;49.49;100166.97;4776464;30;20152;-80
2022/09/06 09:08:39;;;;;;;4.35;2.38;;;;;;;14.87;49.33;100162.72;4777013;30;20890;-78
2022/09/06 09:11:10;;;;;;;2.65;1.67;;;;;;;16.22;50.66;100149.06;4758847;29;20047;-77
2022/09/06 09:13:55;;;;;;;1.77;1.67;;;;;;;19.02;47.17;100145.44;4757631;29;20109;-79
2022/09/06 09:16:21;;;;;;;1.73;1.40;;;;;;;21.38;43.63;100123.00;4745101;30;20565;-79
2022/09/06 09:18:52;;;;;;;2.10;1.30;;;;;;;23.88;39.64;100117.63;4758518;30;20154;-79
2022/09/06 09:21:21;;;;;;;2.10;1.35;;;;;;;25.00;36.36;100111.69;4774751;30;20050;-81
2022/09/06 09:24:01;;;;;;;4.13;1.55;;;;;;;25.88;34.33;100109.53;4785269;29;20057;-80
2022/09/06 09:26:35;;;;;;;2.78;1.60;;;;;;;25.84;32.68;100069.78;4773629;29;20111;-77
2022/09/06 09:29:06;;;;;;;3.22;1.25;;;;;;;25.62;31.29;100104.16;4758588;30;20408;-80
2022/09/06 09:31:40;;;;;;;4.60;2.00;;;;;;;24.48;31.95;100110.50;4751843;30;20130;-77
2022/09/06 09:34:11;;;;;;;6.07;2.17;;;;;;;23.46;32.71;100106.78;4765615;30;20055;-78
2022/09/06 09:36:39;;;;;;;;;;;;;;;22.35;33.08;100108.44;4773879;29;20047;-77
2022/09/06 09:39:13;;;;;;;2.47;1.42;;;;;;;21.66;34.29;100113.69;4775228;30;19992;-77
2022/09/06 09:41:42;;;;;;;1.80;1.30;;;;;;;20.94;34.01;100110.09;4768744;30;20043;-77
2022/09/06 09:44:15;;;;;;;1.92;1.10;;;;;;;20.37;34.79;100109.13;4747231;30;20071;-77
2022/09/06 09:46:46;;;;;;;1.40;1.00;;;;;;;19.76;35.61;100113.44;4743606;30;20146;-79
2022/09/06 09:49:23;;;;;;;4.43;1.20;;;;;;;19.34;35.89;100109.03;4756771;30;20074;-78
2022/09/06 09:52:11;;;;;;;2.92;1.20;;;;;;;19.24;36.77;100125.22;4786072;29;20074;-79
2022/09/06 09:54:41;;;;;;;4.57;1.52;;;;;;;19.05;36.92;100121.59;4790983;29;20113;-76
2022/09/06 09:57:17;;;;;;;2.03;1.15;;;;;;;18.86;37.03;100122.28;4751795;30;20044;-78
2022/09/06 09:59:57;;;;;;;2.22;1.30;;;;;;;18.82;37.37;100123.31;4757557;29;20138;-76
2022/09/06 10:02:30;;;;;;;3.50;1.58;;;;;;;18.67;37.84;100112.41;4770620;30;20427;-77
2022/09/06 10:05:11;;;;;;;5.50;3.10;;;;;;;18.61;37.71;100120.56;4764956;30;20059;-78
2022/09/06 10:07:52;;;;;;;7.55;1.88;;;;;;;18.47;38.26;100121.09;4776914;30;20052;-76
2022/09/06 10:10:37;;;;;;;4.83;1.57;;;;;;;18.15;38.08;100114.34;4764022;30;20472;-78
2022/09/06 10:13:15;;;;;;;4.18;1.55;;;;;;;17.60;38.39;100129.31;4759350;30;20305;-78
2022/09/06 10:15:42;;;;;;;3.08;1.60;;;;;;;17.22;38.57;100118.22;4769930;30;20082;-79
2022/09/06 10:18:30;;;;;;;1.95;1.30;;;;;;;16.84;39.28;100112.34;4757032;29;20141;-77
2022/09/06 10:21:04;;;;;;;2.95;1.20;;;;;;;16.76;39.38;100123.09;4757185;30;20535;-76
2022/09/06 10:23:55;;;;;;;4.10;1.30;;;;;;;16.56;39.57;100116.66;4761712;29;20051;-77
2022/09/06 10:26:42;;;;;;;2.25;1.40;;;;;;;16.52;39.62;100117.63;4773628;29;20141;-77
2022/09/06 10:29:11;;;;;;;5.43;1.35;;;;;;;16.58;39.82;100113.13;4757490;29;20054;-78
2022/09/06 10:32:19;;;;;;;3.80;1.92;;;;;;;16.85;39.93;100112.31;4780687;29;20059;-80
2022/09/06 10:35:05;;;;;;;1.25;1.13;;;;;;;17.28;40.02;100120.66;4758413;29;20139;-77
2022/09/06 10:37:55;;;;;;;4.32;1.40;;;;;;;17.58;39.86;100125.84;4754235;30;20048;-80
2022/09/06 10:40:51;;;;;;;3.38;1.50;;;;;;;17.56;39.53;100111.00;4774217;29;20051;-79
2022/09/06 10:43:18;;;;;;;1.30;1.20;;;;;;;17.23;39.97;100125.19;4778595;29;20052;-77
2022/09/06 10:45:58;;;;;;;8.15;1.05;;;;;;;16.70;40.17;100132.00;4768904;30;20070;-77
2022/09/06 10:48:43;;;;;;;2.60;1.45;;;;;;;15.94;41.55;100114.84;4784061;29;20047;-76
2022/09/06 10:51:42;;;;;;;1.50;1.20;;;;;;;15.48;42.97;100143.91;4782531;29;20081;-77
2022/09/06 10:54:11;;;;;;;2.10;1.40;;;;;;;15.17;44.64;100139.38;4790340;29;20085;-79
2022/09/06 10:56:49;;;;;;;3.42;1.10;;;;;;;15.08;45.38;100136.97;4744909;30;20427;-77
2022/09/06 10:59:45;;;;;;;2.47;1.27;;;;;;;15.11;46.23;100131.66;4784014;29;20051;-77
2022/09/06 11:02:26;;;;;;;1.95;1.75;;;;;;;15.39;46.35;100127.53;4767405;30;20056;-76
2022/09/06 11:05:01;;;;;;;3.47;1.80;;;;;;;15.70;46.30;100122.41;4754285;30;20051;-77
2022/09/06 11:07:30;;;;;;;2.05;1.80;;;;;;;16.16;46.38;100119.50;4765032;30;20043;-77
2022/09/06 11:09:56;;;;;;;3.35;2.17;;;;;;;16.40;46.05;100110.13;4767572;30;20128;-77
2022/09/06 11:12:35;;;;;;;1.95;1.75;;;;;;;16.67;44.79;100115.47;4742862;30;20077;-78
2022/09/06 11:15:04;;;;;;;1.90;1.50;;;;;;;16.80;45.68;100105.44;4750274;30;20438;-79
2022/09/06 11:17:37;;;;;;;1.60;1.45;;;;;;;16.93;45.16;100104.19;4753612;30;20039;-80
2022/09/06 11:20:17;;;;;;;2.13;1.50;;;;;;;16.41;44.30;100015.53;4752230;30;20091;-76
2022/09/06 11:22:52;;;;;;;2.05;1.20;;;;;;;16.87;44.60;100104.38;4737242;30;20074;-76
2022/09/06 11:25:42;;;;;;;1.58;1.23;;;;;;;16.95;44.43;100099.78;4768958;30;20051;-77
2022/09/06 11:28:27;;;;;;;2.53;1.20;;;;;;;17.01;43.88;100091.69;4754262;30;20043;-85
2022/09/06 11:30:56;;;;;;;1.35;1.17;;;;;;;17.16;43.49;100098.25;4757411;30;20052;-76
2022/09/06 11:33:29;;;;;;;1.98;1.10;;;;;;;17.17;43.03;100101.75;4751025;30;20484;-78
2022/09/06 11:36:33;;;;;;;2.47;1.35;;;;;;;17.06;42.66;100109.09;4738254;30;20134;-79
2022/09/06 11:39:04;;;;;;;5.03;1.40;;;;;;;16.70;42.61;100096.97;4769430;30;20104;-75
2022/09/06 11:41:38;;;;;;;1.50;1.33;;;;;;;16.63;42.72;100098.09;4747599;30;20059;-77
2022/09/06 11:44:08;;;;;;;1.48;1.13;;;;;;;16.24;43.28;100076.38;4761005;30;20051;-78
2022/09/06 11:46:35;;;;;;;1.60;1.17;;;;;;;16.35;43.18;100104.13;4753265;30;20058;-79
2022/09/06 11:49:09;;;;;;;2.72;1.27;;;;;;;16.36;43.21;100100.59;4785696;29;20051;-81